Search METAR Data

METAR Data for ENGM:

ENGM 241220Z 03011KT 360V060 9999 VCSH FEW030 BKN095 07/M02 Q1008 TEMPO SHRASN